createdAt,value
2024-02-16T00:05:19.401Z,3.15
2024-02-16T00:10:19.373Z,2.88
2024-02-16T00:15:16.294Z,3.22
2024-02-16T00:20:15.374Z,2.67
2024-02-16T00:25:12.595Z,3.05
2024-02-16T00:30:11.360Z,3.03
2024-02-16T00:35:08.112Z,2.90
2024-02-16T00:40:06.163Z,3.00
2024-02-16T00:45:02.739Z,3.10
2024-02-16T00:54:56.825Z,2.60
2024-02-16T00:59:53.439Z,2.55
2024-02-16T01:09:49.713Z,2.65
2024-02-16T01:19:57.838Z,2.60
2024-02-16T01:24:54.681Z,2.20
2024-02-16T01:29:51.212Z,2.35
2024-02-16T01:39:48.699Z,2.17
2024-02-16T01:44:45.639Z,2.58
2024-02-16T01:49:42.401Z,2.83
2024-02-16T01:54:39.458Z,2.30
2024-02-16T01:59:38.329Z,3.17
2024-02-16T02:04:37.728Z,2.47
2024-02-16T02:09:36.877Z,2.97
2024-02-16T02:14:33.428Z,2.15
2024-02-16T02:24:30.139Z,2.22
2024-02-16T02:29:27.143Z,2.70
2024-02-16T02:39:23.096Z,2.95
2024-02-16T02:44:23.413Z,2.40
2024-02-16T02:49:20.587Z,2.55
2024-02-16T02:54:17.334Z,3.15
2024-02-16T03:04:11.060Z,2.88
2024-02-16T03:09:07.992Z,2.63
2024-02-16T03:14:07.082Z,2.45
2024-02-16T03:19:07.376Z,2.65
2024-02-16T03:24:05.481Z,2.47
2024-02-16T03:29:02.480Z,2.50
2024-02-16T03:34:04.449Z,2.30
2024-02-16T03:39:01.134Z,2.70
2024-02-16T03:48:58.172Z,2.65
2024-02-16T03:53:55.411Z,2.50
2024-02-16T03:58:51.971Z,2.70
2024-02-16T04:03:53.131Z,2.83
2024-02-16T04:08:50.514Z,2.88
2024-02-16T04:13:47.589Z,3.38
2024-02-16T04:23:41.505Z,2.47
2024-02-16T04:28:38.040Z,3.10
2024-02-16T04:33:35.072Z,2.47
2024-02-16T04:38:31.825Z,2.60
2024-02-16T04:48:24.890Z,2.13
2024-02-16T04:53:21.577Z,2.50
2024-02-16T04:58:18.443Z,2.20
2024-02-16T05:08:16.486Z,2.15
2024-02-16T05:13:15.407Z,1.80
2024-02-16T05:18:14.227Z,2.05
2024-02-16T05:23:11.674Z,2.00
2024-02-16T05:28:08.606Z,1.73
2024-02-16T05:34:02.545Z,1.85
2024-02-16T06:15:18.489Z,2.28
2024-02-16T09:13:52.693Z,1.80
2024-02-16T09:23:46.420Z,1.90
2024-02-16T09:44:12.305Z,1.92
2024-02-16T09:49:11.618Z,1.95
2024-02-16T10:00:21.501Z,1.60
2024-02-16T10:05:20.432Z,1.83
2024-02-16T10:10:28.440Z,1.70
2024-02-16T10:15:42.293Z,1.70
2024-02-16T10:20:39.823Z,1.95
2024-02-16T10:25:37.859Z,1.40
2024-02-16T10:30:39.875Z,1.40
2024-02-16T10:35:40.264Z,1.45
2024-02-16T10:40:41.218Z,2.00
2024-02-16T10:45:39.211Z,1.70
2024-02-16T10:50:36.863Z,2.00
2024-02-16T11:39:57.452Z,1.50
2024-02-16T11:45:00.122Z,1.90
2024-02-16T11:55:18.701Z,2.30
2024-02-16T12:00:16.837Z,1.73
2024-02-16T12:05:36.746Z,2.20
2024-02-16T12:16:11.857Z,2.38
2024-02-16T12:21:08.581Z,1.90
2024-02-16T12:26:06.975Z,1.60
2024-02-16T12:31:29.022Z,2.33
2024-02-16T12:36:25.642Z,2.40
2024-02-16T13:07:43.168Z,2.60
2024-02-16T13:12:40.150Z,2.42
2024-02-16T13:17:37.757Z,2.28
2024-02-16T13:22:35.260Z,2.33
2024-02-16T13:27:53.024Z,2.50
2024-02-16T13:33:00.914Z,2.50
2024-02-16T13:37:57.550Z,2.30
2024-02-16T13:42:56.587Z,2.78
2024-02-16T13:48:00.654Z,2.60
2024-02-16T13:52:58.526Z,3.00
2024-02-16T13:58:00.817Z,2.40
2024-02-16T14:02:57.513Z,2.92
2024-02-16T14:08:00.333Z,2.72
2024-02-16T14:28:39.654Z,2.80
2024-02-16T14:34:35.138Z,2.35
2024-02-16T14:39:31.753Z,2.72
2024-02-16T14:44:28.822Z,3.20
2024-02-16T14:49:27.741Z,3.40
2024-02-16T14:59:37.855Z,4.40
2024-02-16T15:04:35.326Z,3.53
2024-02-16T15:09:32.561Z,3.35
2024-02-16T15:14:29.674Z,4.70
2024-02-16T15:19:27.336Z,4.10
2024-02-16T15:24:24.752Z,4.40
2024-02-16T15:29:21.767Z,4.88
2024-02-16T15:34:18.698Z,4.43
2024-02-16T15:39:51.227Z,4.65
2024-02-16T15:44:55.059Z,4.43
2024-02-16T15:49:52.316Z,4.60
2024-02-16T15:54:49.626Z,4.28
2024-02-16T15:59:47.036Z,4.38
2024-02-16T16:04:46.276Z,4.25
2024-02-16T16:09:44.288Z,4.15
2024-02-16T16:14:41.073Z,3.55
2024-02-16T16:19:38.146Z,3.50
2024-02-16T16:29:46.204Z,2.90
2024-02-16T16:34:43.159Z,2.42
2024-02-16T16:39:40.477Z,2.25
2024-02-16T16:44:37.164Z,2.30
2024-02-16T16:49:34.209Z,2.22
2024-02-16T16:54:31.432Z,2.58
2024-02-16T16:59:28.161Z,3.00
2024-02-16T17:15:42.908Z,1.98
2024-02-16T17:20:41.696Z,1.10
2024-02-16T17:25:38.418Z,1.40
2024-02-16T17:41:10.219Z,1.17
2024-02-16T17:46:07.323Z,1.13
2024-02-16T17:51:04.754Z,1.10
2024-02-16T17:56:01.335Z,1.17
2024-02-16T18:05:57.926Z,1.42
2024-02-16T18:16:06.309Z,1.30
2024-02-16T18:25:59.370Z,1.55
2024-02-16T18:30:55.973Z,1.23
2024-02-16T18:51:32.079Z,1.52
2024-02-16T19:06:58.153Z,1.40
2024-02-16T19:16:56.437Z,1.40
2024-02-16T19:21:55.592Z,1.40
2024-02-16T19:26:52.305Z,1.65
2024-02-16T19:31:49.857Z,1.73
2024-02-16T19:36:48.703Z,1.60
2024-02-16T19:46:58.926Z,2.05
2024-02-16T19:51:57.291Z,2.30
2024-02-16T19:56:53.969Z,2.35
2024-02-16T20:01:52.677Z,2.90
2024-02-16T20:12:01.804Z,3.45
2024-02-16T20:16:58.518Z,3.30
2024-02-16T20:27:03.878Z,4.60
2024-02-16T20:32:00.836Z,4.25
2024-02-16T20:36:58.271Z,4.20
2024-02-16T20:41:56.069Z,4.40
2024-02-16T20:52:38.990Z,4.63
2024-02-16T20:57:37.930Z,4.90
2024-02-16T21:02:35.729Z,5.20
2024-02-16T21:07:32.332Z,5.10
2024-02-16T21:22:38.034Z,6.68
2024-02-16T21:43:13.179Z,6.10
